sensor_id;sensor_type;location;lat;lon;timestamp;P1;durP1;ratioP1;P2;durP2;ratioP2
58354;SDS011;44160;49.080;19.302;2023-08-24T00:00:45;14.13;;;9.63;;
58354;SDS011;44160;49.080;19.302;2023-08-24T00:03:11;15.88;;;10.10;;
58354;SDS011;44160;49.080;19.302;2023-08-24T00:05:37;14.93;;;9.70;;
58354;SDS011;44160;49.080;19.302;2023-08-24T00:08:05;11.20;;;9.75;;
58354;SDS011;44160;49.080;19.302;2023-08-24T00:10:31;12.70;;;8.85;;
58354;SDS011;44160;49.080;19.302;2023-08-24T00:12:57;12.18;;;9.65;;
58354;SDS011;44160;49.080;19.302;2023-08-24T00:15:23;13.25;;;10.90;;
58354;SDS011;44160;49.080;19.302;2023-08-24T00:17:49;18.13;;;12.13;;
58354;SDS011;44160;49.080;19.302;2023-08-24T00:20:15;12.77;;;10.95;;
58354;SDS011;44160;49.080;19.302;2023-08-24T00:22:41;15.98;;;12.55;;
58354;SDS011;44160;49.080;19.302;2023-08-24T00:25:08;16.48;;;11.68;;
58354;SDS011;44160;49.080;19.302;2023-08-24T00:27:35;13.05;;;11.57;;
58354;SDS011;44160;49.080;19.302;2023-08-24T00:30:02;18.42;;;11.20;;
58354;SDS011;44160;49.080;19.302;2023-08-24T00:32:34;13.57;;;11.63;;
58354;SDS011;44160;49.080;19.302;2023-08-24T00:35:04;14.05;;;10.80;;
58354;SDS011;44160;49.080;19.302;2023-08-24T00:37:32;16.45;;;10.32;;
58354;SDS011;44160;49.080;19.302;2023-08-24T00:40:05;15.98;;;11.52;;
58354;SDS011;44160;49.080;19.302;2023-08-24T00:42:41;18.15;;;10.93;;
58354;SDS011;44160;49.080;19.302;2023-08-24T00:45:08;15.23;;;11.93;;
58354;SDS011;44160;49.080;19.302;2023-08-24T00:47:36;13.05;;;10.77;;
58354;SDS011;44160;49.080;19.302;2023-08-24T00:50:02;14.57;;;10.52;;
58354;SDS011;44160;49.080;19.302;2023-08-24T00:52:29;13.23;;;11.13;;
58354;SDS011;44160;49.080;19.302;2023-08-24T00:54:57;15.07;;;10.35;;
58354;SDS011;44160;49.080;19.302;2023-08-24T00:57:23;18.05;;;10.73;;
58354;SDS011;44160;49.080;19.302;2023-08-24T00:59:49;16.42;;;11.38;;
58354;SDS011;44160;49.080;19.302;2023-08-24T01:02:15;15.52;;;11.95;;
58354;SDS011;44160;49.080;19.302;2023-08-24T01:04:42;17.52;;;13.52;;
58354;SDS011;44160;49.080;19.302;2023-08-24T01:07:08;17.02;;;12.82;;
58354;SDS011;44160;49.080;19.302;2023-08-24T01:09:34;18.50;;;12.45;;
58354;SDS011;44160;49.080;19.302;2023-08-24T01:17:24;22.90;;;12.15;;
58354;SDS011;44160;49.080;19.302;2023-08-24T01:19:54;16.27;;;11.80;;
58354;SDS011;44160;49.080;19.302;2023-08-24T01:24:54;14.00;;;12.27;;
58354;SDS011;44160;49.080;19.302;2023-08-24T01:27:25;18.13;;;11.95;;
58354;SDS011;44160;49.080;19.302;2023-08-24T01:29:52;17.27;;;13.15;;
58354;SDS011;44160;49.080;19.302;2023-08-24T01:32:21;18.85;;;11.93;;
58354;SDS011;44160;49.080;19.302;2023-08-24T01:34:47;16.15;;;12.75;;
58354;SDS011;44160;49.080;19.302;2023-08-24T01:37:13;18.38;;;12.77;;
58354;SDS011;44160;49.080;19.302;2023-08-24T01:39:47;15.32;;;12.38;;
58354;SDS011;44160;49.080;19.302;2023-08-24T01:42:17;19.92;;;12.13;;
58354;SDS011;44160;49.080;19.302;2023-08-24T01:44:45;17.42;;;12.45;;
58354;SDS011;44160;49.080;19.302;2023-08-24T01:47:13;16.23;;;12.20;;
58354;SDS011;44160;49.080;19.302;2023-08-24T01:49:39;16.52;;;12.05;;
58354;SDS011;44160;49.080;19.302;2023-08-24T01:52:06;13.68;;;11.60;;
58354;SDS011;44160;49.080;19.302;2023-08-24T01:54:33;16.65;;;11.88;;
58354;SDS011;44160;49.080;19.302;2023-08-24T01:56:59;14.95;;;10.75;;
58354;SDS011;44160;49.080;19.302;2023-08-24T01:59:25;15.38;;;12.35;;
58354;SDS011;44160;49.080;19.302;2023-08-24T02:01:52;17.10;;;12.85;;
58354;SDS011;44160;49.080;19.302;2023-08-24T02:04:18;14.50;;;12.65;;
58354;SDS011;44160;49.080;19.302;2023-08-24T02:06:44;17.17;;;11.30;;
58354;SDS011;44160;49.080;19.302;2023-08-24T02:09:10;15.68;;;12.05;;
58354;SDS011;44160;49.080;19.302;2023-08-24T02:11:36;15.27;;;12.43;;
58354;SDS011;44160;49.080;19.302;2023-08-24T02:14:02;16.08;;;10.32;;
58354;SDS011;44160;49.080;19.302;2023-08-24T02:16:28;12.57;;;10.95;;
58354;SDS011;44160;49.080;19.302;2023-08-24T02:18:55;13.73;;;11.45;;
58354;SDS011;44160;49.080;19.302;2023-08-24T02:21:21;11.63;;;10.43;;
58354;SDS011;44160;49.080;19.302;2023-08-24T02:23:47;12.90;;;10.95;;
58354;SDS011;44160;49.080;19.302;2023-08-24T02:26:13;15.38;;;10.95;;
58354;SDS011;44160;49.080;19.302;2023-08-24T02:28:39;14.80;;;10.85;;
58354;SDS011;44160;49.080;19.302;2023-08-24T02:31:05;14.02;;;11.82;;
58354;SDS011;44160;49.080;19.302;2023-08-24T02:33:31;10.88;;;9.65;;
58354;SDS011;44160;49.080;19.302;2023-08-24T02:35:57;13.13;;;9.93;;
58354;SDS011;44160;49.080;19.302;2023-08-24T02:38:23;12.20;;;9.38;;
58354;SDS011;44160;49.080;19.302;2023-08-24T02:40:59;11.27;;;9.27;;
58354;SDS011;44160;49.080;19.302;2023-08-24T02:43:25;17.88;;;10.15;;
58354;SDS011;44160;49.080;19.302;2023-08-24T02:45:52;14.52;;;9.13;;
58354;SDS011;44160;49.080;19.302;2023-08-24T02:48:18;11.35;;;9.00;;
58354;SDS011;44160;49.080;19.302;2023-08-24T02:50:48;10.82;;;9.32;;
58354;SDS011;44160;49.080;19.302;2023-08-24T02:53:14;13.27;;;9.68;;
58354;SDS011;44160;49.080;19.302;2023-08-24T02:55:39;12.48;;;10.13;;
58354;SDS011;44160;49.080;19.302;2023-08-24T02:58:06;14.40;;;10.63;;
58354;SDS011;44160;49.080;19.302;2023-08-24T03:00:32;12.80;;;10.55;;
58354;SDS011;44160;49.080;19.302;2023-08-24T03:02:58;15.82;;;10.70;;
58354;SDS011;44160;49.080;19.302;2023-08-24T03:05:24;13.98;;;11.30;;
58354;SDS011;44160;49.080;19.302;2023-08-24T03:07:50;16.83;;;11.75;;
58354;SDS011;44160;49.080;19.302;2023-08-24T03:10:16;15.73;;;12.02;;
58354;SDS011;44160;49.080;19.302;2023-08-24T03:12:42;14.95;;;12.02;;
58354;SDS011;44160;49.080;19.302;2023-08-24T03:15:08;16.83;;;11.77;;
58354;SDS011;44160;49.080;19.302;2023-08-24T03:17:34;15.25;;;12.02;;
58354;SDS011;44160;49.080;19.302;2023-08-24T03:20:00;18.05;;;13.25;;
58354;SDS011;44160;49.080;19.302;2023-08-24T03:22:26;16.80;;;13.13;;
58354;SDS011;44160;49.080;19.302;2023-08-24T03:24:52;18.33;;;14.68;;
58354;SDS011;44160;49.080;19.302;2023-08-24T03:27:18;19.77;;;14.57;;
58354;SDS011;44160;49.080;19.302;2023-08-24T03:29:44;18.10;;;14.48;;
58354;SDS011;44160;49.080;19.302;2023-08-24T03:32:10;16.52;;;13.93;;
58354;SDS011;44160;49.080;19.302;2023-08-24T03:34:36;16.00;;;13.70;;
58354;SDS011;44160;49.080;19.302;2023-08-24T03:37:02;15.45;;;12.95;;
58354;SDS011;44160;49.080;19.302;2023-08-24T03:39:28;18.08;;;12.95;;
58354;SDS011;44160;49.080;19.302;2023-08-24T03:41:54;14.38;;;12.45;;
58354;SDS011;44160;49.080;19.302;2023-08-24T03:44:20;15.85;;;12.93;;
58354;SDS011;44160;49.080;19.302;2023-08-24T03:46:46;15.75;;;12.23;;
58354;SDS011;44160;49.080;19.302;2023-08-24T03:49:12;16.85;;;11.82;;
58354;SDS011;44160;49.080;19.302;2023-08-24T03:51:38;14.88;;;11.52;;
58354;SDS011;44160;49.080;19.302;2023-08-24T03:54:04;11.85;;;10.38;;
58354;SDS011;44160;49.080;19.302;2023-08-24T03:56:30;15.70;;;12.02;;
58354;SDS011;44160;49.080;19.302;2023-08-24T03:58:57;18.88;;;11.55;;
58354;SDS011;44160;49.080;19.302;2023-08-24T04:01:23;13.63;;;10.23;;
58354;SDS011;44160;49.080;19.302;2023-08-24T04:03:49;15.23;;;10.63;;
58354;SDS011;44160;49.080;19.302;2023-08-24T04:06:17;16.45;;;10.00;;
58354;SDS011;44160;49.080;19.302;2023-08-24T04:08:44;14.45;;;11.15;;
58354;SDS011;44160;49.080;19.302;2023-08-24T04:11:10;11.65;;;9.50;;
58354;SDS011;44160;49.080;19.302;2023-08-24T04:13:36;12.38;;;10.38;;
58354;SDS011;44160;49.080;19.302;2023-08-24T04:16:02;15.05;;;10.40;;
58354;SDS011;44160;49.080;19.302;2023-08-24T04:18:29;12.77;;;10.25;;
58354;SDS011;44160;49.080;19.302;2023-08-24T04:20:56;13.43;;;10.52;;
58354;SDS011;44160;49.080;19.302;2023-08-24T04:23:25;12.98;;;10.07;;
58354;SDS011;44160;49.080;19.302;2023-08-24T04:25:52;13.10;;;10.35;;
58354;SDS011;44160;49.080;19.302;2023-08-24T04:28:18;18.63;;;11.57;;
58354;SDS011;44160;49.080;19.302;2023-08-24T04:30:54;16.13;;;13.00;;
58354;SDS011;44160;49.080;19.302;2023-08-24T04:33:21;15.65;;;13.15;;
58354;SDS011;44160;49.080;19.302;2023-08-24T04:35:47;12.07;;;10.77;;
58354;SDS011;44160;49.080;19.302;2023-08-24T04:38:13;16.85;;;12.20;;
58354;SDS011;44160;49.080;19.302;2023-08-24T04:40:52;17.48;;;12.52;;
58354;SDS011;44160;49.080;19.302;2023-08-24T04:43:19;15.73;;;11.45;;
58354;SDS011;44160;49.080;19.302;2023-08-24T04:45:49;11.02;;;9.52;;
58354;SDS011;44160;49.080;19.302;2023-08-24T04:48:19;13.27;;;10.85;;
58354;SDS011;44160;49.080;19.302;2023-08-24T04:50:47;15.70;;;10.90;;
58354;SDS011;44160;49.080;19.302;2023-08-24T04:53:16;14.80;;;10.75;;
58354;SDS011;44160;49.080;19.302;2023-08-24T04:55:43;16.25;;;11.40;;
58354;SDS011;44160;49.080;19.302;2023-08-24T04:58:09;16.60;;;10.85;;
58354;SDS011;44160;49.080;19.302;2023-08-24T05:00:36;12.50;;;10.48;;
58354;SDS011;44160;49.080;19.302;2023-08-24T05:03:05;14.80;;;11.23;;
58354;SDS011;44160;49.080;19.302;2023-08-24T05:05:31;13.93;;;11.00;;
58354;SDS011;44160;49.080;19.302;2023-08-24T05:07:58;13.77;;;11.32;;
58354;SDS011;44160;49.080;19.302;2023-08-24T05:10:24;16.83;;;11.60;;
58354;SDS011;44160;49.080;19.302;2023-08-24T05:12:51;20.88;;;11.88;;
58354;SDS011;44160;49.080;19.302;2023-08-24T05:15:17;12.18;;;10.88;;
58354;SDS011;44160;49.080;19.302;2023-08-24T05:17:43;12.55;;;11.07;;
58354;SDS011;44160;49.080;19.302;2023-08-24T05:20:09;13.25;;;11.10;;
58354;SDS011;44160;49.080;19.302;2023-08-24T05:22:36;15.10;;;11.57;;
58354;SDS011;44160;49.080;19.302;2023-08-24T05:25:02;14.02;;;10.85;;
58354;SDS011;44160;49.080;19.302;2023-08-24T05:27:29;17.38;;;10.75;;
58354;SDS011;44160;49.080;19.302;2023-08-24T05:29:55;15.07;;;11.23;;
58354;SDS011;44160;49.080;19.302;2023-08-24T05:32:21;13.00;;;11.00;;
58354;SDS011;44160;49.080;19.302;2023-08-24T05:34:47;15.23;;;10.63;;
58354;SDS011;44160;49.080;19.302;2023-08-24T05:37:13;11.07;;;9.93;;
58354;SDS011;44160;49.080;19.302;2023-08-24T05:39:39;12.48;;;10.68;;
58354;SDS011;44160;49.080;19.302;2023-08-24T05:42:05;17.40;;;10.32;;
58354;SDS011;44160;49.080;19.302;2023-08-24T05:44:31;13.85;;;9.10;;
58354;SDS011;44160;49.080;19.302;2023-08-24T05:46:57;10.98;;;9.00;;
58354;SDS011;44160;49.080;19.302;2023-08-24T05:49:23;13.13;;;9.02;;
58354;SDS011;44160;49.080;19.302;2023-08-24T05:51:50;11.25;;;8.98;;
58354;SDS011;44160;49.080;19.302;2023-08-24T05:54:16;8.80;;;7.85;;
58354;SDS011;44160;49.080;19.302;2023-08-24T05:56:45;8.38;;;7.47;;
58354;SDS011;44160;49.080;19.302;2023-08-24T05:59:11;12.38;;;8.60;;
58354;SDS011;44160;49.080;19.302;2023-08-24T06:01:37;9.65;;;7.57;;
58354;SDS011;44160;49.080;19.302;2023-08-24T06:04:08;9.55;;;7.90;;
58354;SDS011;44160;49.080;19.302;2023-08-24T06:06:37;10.02;;;8.77;;
58354;SDS011;44160;49.080;19.302;2023-08-24T06:09:03;13.32;;;8.73;;
58354;SDS011;44160;49.080;19.302;2023-08-24T06:11:29;11.20;;;7.93;;
58354;SDS011;44160;49.080;19.302;2023-08-24T06:13:55;11.57;;;8.07;;
58354;SDS011;44160;49.080;19.302;2023-08-24T06:16:21;8.55;;;7.57;;
58354;SDS011;44160;49.080;19.302;2023-08-24T06:18:48;8.93;;;7.85;;
58354;SDS011;44160;49.080;19.302;2023-08-24T06:21:15;8.63;;;7.72;;
58354;SDS011;44160;49.080;19.302;2023-08-24T06:23:41;11.27;;;7.85;;
58354;SDS011;44160;49.080;19.302;2023-08-24T06:26:07;9.52;;;8.38;;
58354;SDS011;44160;49.080;19.302;2023-08-24T06:28:33;11.15;;;7.72;;
58354;SDS011;44160;49.080;19.302;2023-08-24T06:31:00;10.40;;;7.45;;
58354;SDS011;44160;49.080;19.302;2023-08-24T06:33:29;8.85;;;7.57;;
58354;SDS011;44160;49.080;19.302;2023-08-24T06:35:58;9.77;;;7.32;;
58354;SDS011;44160;49.080;19.302;2023-08-24T06:38:25;12.90;;;8.57;;
58354;SDS011;44160;49.080;19.302;2023-08-24T06:40:51;10.02;;;7.50;;
58354;SDS011;44160;49.080;19.302;2023-08-24T06:43:17;7.70;;;6.90;;
58354;SDS011;44160;49.080;19.302;2023-08-24T06:45:46;8.00;;;7.20;;
58354;SDS011;44160;49.080;19.302;2023-08-24T06:48:12;10.77;;;8.20;;
58354;SDS011;44160;49.080;19.302;2023-08-24T06:50:38;8.93;;;7.25;;
58354;SDS011;44160;49.080;19.302;2023-08-24T06:53:04;8.40;;;7.53;;
58354;SDS011;44160;49.080;19.302;2023-08-24T06:55:30;8.27;;;6.95;;
58354;SDS011;44160;49.080;19.302;2023-08-24T06:57:56;7.88;;;7.07;;
58354;SDS011;44160;49.080;19.302;2023-08-24T07:00:22;10.23;;;6.82;;
58354;SDS011;44160;49.080;19.302;2023-08-24T07:02:50;7.93;;;7.10;;
58354;SDS011;44160;49.080;19.302;2023-08-24T07:05:17;8.07;;;7.35;;
58354;SDS011;44160;49.080;19.302;2023-08-24T07:07:49;9.65;;;7.88;;
58354;SDS011;44160;49.080;19.302;2023-08-24T07:10:15;9.57;;;7.60;;
58354;SDS011;44160;49.080;19.302;2023-08-24T07:12:41;10.68;;;7.13;;
58354;SDS011;44160;49.080;19.302;2023-08-24T07:15:09;8.82;;;7.10;;
58354;SDS011;44160;49.080;19.302;2023-08-24T07:17:36;10.40;;;7.30;;
58354;SDS011;44160;49.080;19.302;2023-08-24T07:20:02;11.23;;;6.82;;
58354;SDS011;44160;49.080;19.302;2023-08-24T07:22:30;9.95;;;7.28;;
58354;SDS011;44160;49.080;19.302;2023-08-24T07:24:56;8.07;;;6.93;;
58354;SDS011;44160;49.080;19.302;2023-08-24T07:27:22;7.55;;;6.85;;
58354;SDS011;44160;49.080;19.302;2023-08-24T07:29:48;9.57;;;6.57;;
58354;SDS011;44160;49.080;19.302;2023-08-24T07:32:15;9.68;;;7.07;;
58354;SDS011;44160;49.080;19.302;2023-08-24T07:34:41;7.70;;;6.88;;
58354;SDS011;44160;49.080;19.302;2023-08-24T07:37:07;8.57;;;6.78;;
58354;SDS011;44160;49.080;19.302;2023-08-24T07:39:33;14.30;;;6.93;;
58354;SDS011;44160;49.080;19.302;2023-08-24T07:41:59;7.63;;;6.70;;
58354;SDS011;44160;49.080;19.302;2023-08-24T07:44:25;7.25;;;6.20;;
58354;SDS011;44160;49.080;19.302;2023-08-24T07:46:51;8.80;;;6.25;;
58354;SDS011;44160;49.080;19.302;2023-08-24T07:49:17;8.25;;;6.28;;
58354;SDS011;44160;49.080;19.302;2023-08-24T07:51:43;7.60;;;6.18;;
58354;SDS011;44160;49.080;19.302;2023-08-24T07:54:09;7.72;;;6.63;;
58354;SDS011;44160;49.080;19.302;2023-08-24T07:56:35;6.93;;;6.22;;
58354;SDS011;44160;49.080;19.302;2023-08-24T07:59:02;7.60;;;5.60;;
58354;SDS011;44160;49.080;19.302;2023-08-24T08:01:29;7.47;;;6.55;;
58354;SDS011;44160;49.080;19.302;2023-08-24T08:03:55;7.60;;;6.28;;
58354;SDS011;44160;49.080;19.302;2023-08-24T08:06:21;12.13;;;6.45;;
58354;SDS011;44160;49.080;19.302;2023-08-24T08:08:49;8.38;;;5.75;;
58354;SDS011;44160;49.080;19.302;2023-08-24T08:11:16;13.55;;;5.90;;
58354;SDS011;44160;49.080;19.302;2023-08-24T08:13:42;8.52;;;5.05;;
58354;SDS011;44160;49.080;19.302;2023-08-24T08:16:09;13.45;;;5.22;;
58354;SDS011;44160;49.080;19.302;2023-08-24T08:18:35;6.72;;;4.90;;
58354;SDS011;44160;49.080;19.302;2023-08-24T08:21:14;5.97;;;4.85;;
58354;SDS011;44160;49.080;19.302;2023-08-24T08:23:43;6.38;;;4.85;;
58354;SDS011;44160;49.080;19.302;2023-08-24T08:26:10;5.93;;;4.72;;
58354;SDS011;44160;49.080;19.302;2023-08-24T08:28:36;6.80;;;4.78;;
58354;SDS011;44160;49.080;19.302;2023-08-24T08:31:02;5.30;;;4.30;;
58354;SDS011;44160;49.080;19.302;2023-08-24T08:33:28;10.15;;;4.18;;
58354;SDS011;44160;49.080;19.302;2023-08-24T08:35:55;5.05;;;4.03;;
58354;SDS011;44160;49.080;19.302;2023-08-24T08:38:21;5.47;;;3.78;;
58354;SDS011;44160;49.080;19.302;2023-08-24T08:40:50;8.60;;;5.03;;
58354;SDS011;44160;49.080;19.302;2023-08-24T08:43:17;7.47;;;4.10;;
58354;SDS011;44160;49.080;19.302;2023-08-24T08:45:43;4.63;;;3.90;;
58354;SDS011;44160;49.080;19.302;2023-08-24T08:48:09;6.20;;;3.50;;
58354;SDS011;44160;49.080;19.302;2023-08-24T08:50:35;5.75;;;3.30;;
58354;SDS011;44160;49.080;19.302;2023-08-24T08:53:01;5.63;;;2.80;;
58354;SDS011;44160;49.080;19.302;2023-08-24T08:55:27;6.93;;;2.67;;
58354;SDS011;44160;49.080;19.302;2023-08-24T08:57:56;4.78;;;2.95;;
58354;SDS011;44160;49.080;19.302;2023-08-24T09:00:25;2.95;;;2.55;;
58354;SDS011;44160;49.080;19.302;2023-08-24T09:02:51;6.57;;;2.75;;
58354;SDS011;44160;49.080;19.302;2023-08-24T09:05:17;5.05;;;2.80;;
58354;SDS011;44160;49.080;19.302;2023-08-24T09:07:45;5.00;;;3.20;;
58354;SDS011;44160;49.080;19.302;2023-08-24T09:10:12;7.05;;;2.70;;
58354;SDS011;44160;49.080;19.302;2023-08-24T09:12:38;4.03;;;2.95;;
58354;SDS011;44160;49.080;19.302;2023-08-24T09:15:04;4.93;;;2.20;;
58354;SDS011;44160;49.080;19.302;2023-08-24T09:17:31;6.90;;;2.45;;
58354;SDS011;44160;49.080;19.302;2023-08-24T09:19:58;4.80;;;2.70;;
58354;SDS011;44160;49.080;19.302;2023-08-24T09:22:24;3.97;;;2.47;;
58354;SDS011;44160;49.080;19.302;2023-08-24T09:24:50;4.22;;;2.50;;
58354;SDS011;44160;49.080;19.302;2023-08-24T09:27:17;5.82;;;2.75;;
58354;SDS011;44160;49.080;19.302;2023-08-24T09:29:47;4.32;;;2.38;;
58354;SDS011;44160;49.080;19.302;2023-08-24T09:32:13;4.32;;;2.55;;
58354;SDS011;44160;49.080;19.302;2023-08-24T09:34:39;4.15;;;2.45;;
58354;SDS011;44160;49.080;19.302;2023-08-24T09:37:12;3.92;;;2.45;;
58354;SDS011;44160;49.080;19.302;2023-08-24T09:39:39;3.58;;;2.70;;
58354;SDS011;44160;49.080;19.302;2023-08-24T09:42:05;4.07;;;2.70;;
58354;SDS011;44160;49.080;19.302;2023-08-24T09:44:32;3.20;;;2.90;;
58354;SDS011;44160;49.080;19.302;2023-08-24T09:46:58;3.85;;;2.78;;
58354;SDS011;44160;49.080;19.302;2023-08-24T09:49:24;3.25;;;2.55;;
58354;SDS011;44160;49.080;19.302;2023-08-24T09:51:55;4.65;;;2.55;;
58354;SDS011;44160;49.080;19.302;2023-08-24T09:54:26;4.95;;;2.80;;
58354;SDS011;44160;49.080;19.302;2023-08-24T09:56:52;6.00;;;2.88;;
58354;SDS011;44160;49.080;19.302;2023-08-24T09:59:21;3.88;;;3.00;;
58354;SDS011;44160;49.080;19.302;2023-08-24T10:01:50;3.55;;;2.95;;
58354;SDS011;44160;49.080;19.302;2023-08-24T10:04:23;4.57;;;3.08;;
58354;SDS011;44160;49.080;19.302;2023-08-24T10:06:55;5.53;;;2.90;;
58354;SDS011;44160;49.080;19.302;2023-08-24T10:09:22;3.50;;;2.72;;
58354;SDS011;44160;49.080;19.302;2023-08-24T10:11:49;4.95;;;3.17;;
58354;SDS011;44160;49.080;19.302;2023-08-24T10:14:17;5.30;;;3.08;;
58354;SDS011;44160;49.080;19.302;2023-08-24T10:16:44;3.73;;;2.93;;
58354;SDS011;44160;49.080;19.302;2023-08-24T10:19:11;4.63;;;2.88;;
58354;SDS011;44160;49.080;19.302;2023-08-24T10:21:38;3.65;;;2.63;;
58354;SDS011;44160;49.080;19.302;2023-08-24T10:24:05;4.18;;;3.13;;
58354;SDS011;44160;49.080;19.302;2023-08-24T10:26:32;4.85;;;3.33;;
58354;SDS011;44160;49.080;19.302;2023-08-24T10:28:59;3.95;;;3.13;;
58354;SDS011;44160;49.080;19.302;2023-08-24T10:31:25;5.38;;;3.05;;
58354;SDS011;44160;49.080;19.302;2023-08-24T10:33:52;4.13;;;3.35;;
58354;SDS011;44160;49.080;19.302;2023-08-24T10:36:20;4.80;;;3.35;;
58354;SDS011;44160;49.080;19.302;2023-08-24T10:38:47;5.50;;;3.45;;
58354;SDS011;44160;49.080;19.302;2023-08-24T10:41:13;3.50;;;3.20;;
58354;SDS011;44160;49.080;19.302;2023-08-24T10:43:40;5.13;;;3.53;;
58354;SDS011;44160;49.080;19.302;2023-08-24T10:46:13;4.43;;;3.40;;
58354;SDS011;44160;49.080;19.302;2023-08-24T10:53:43;4.57;;;3.25;;
58354;SDS011;44160;49.080;19.302;2023-08-24T10:56:10;5.18;;;3.30;;
58354;SDS011;44160;49.080;19.302;2023-08-24T10:58:39;3.63;;;3.25;;
58354;SDS011;44160;49.080;19.302;2023-08-24T11:01:05;3.83;;;3.42;;
58354;SDS011;44160;49.080;19.302;2023-08-24T11:03:34;5.57;;;3.38;;
58354;SDS011;44160;49.080;19.302;2023-08-24T11:06:00;4.47;;;3.22;;
58354;SDS011;44160;49.080;19.302;2023-08-24T11:08:45;5.53;;;3.30;;
58354;SDS011;44160;49.080;19.302;2023-08-24T11:11:21;5.05;;;3.60;;
58354;SDS011;44160;49.080;19.302;2023-08-24T11:16:42;5.82;;;3.88;;
58354;SDS011;44160;49.080;19.302;2023-08-24T11:19:08;4.25;;;3.25;;
58354;SDS011;44160;49.080;19.302;2023-08-24T11:21:34;5.32;;;3.45;;
58354;SDS011;44160;49.080;19.302;2023-08-24T11:24:01;5.55;;;3.90;;
58354;SDS011;44160;49.080;19.302;2023-08-24T11:26:29;4.47;;;3.63;;
58354;SDS011;44160;49.080;19.302;2023-08-24T11:28:55;4.75;;;3.50;;
58354;SDS011;44160;49.080;19.302;2023-08-24T11:31:23;4.57;;;3.28;;
58354;SDS011;44160;49.080;19.302;2023-08-24T11:33:53;5.25;;;3.85;;
58354;SDS011;44160;49.080;19.302;2023-08-24T11:36:22;14.90;;;10.70;;
58354;SDS011;44160;49.080;19.302;2023-08-24T11:38:53;5.13;;;4.45;;
58354;SDS011;44160;49.080;19.302;2023-08-24T11:41:19;21.52;;;14.20;;
58354;SDS011;44160;49.080;19.302;2023-08-24T11:43:48;7.00;;;5.40;;
58354;SDS011;44160;49.080;19.302;2023-08-24T11:46:19;5.65;;;3.40;;
58354;SDS011;44160;49.080;19.302;2023-08-24T11:48:45;4.20;;;2.92;;
58354;SDS011;44160;49.080;19.302;2023-08-24T11:51:11;7.38;;;3.50;;
58354;SDS011;44160;49.080;19.302;2023-08-24T11:53:45;4.03;;;3.22;;
58354;SDS011;44160;49.080;19.302;2023-08-24T11:56:12;10.45;;;3.22;;
58354;SDS011;44160;49.080;19.302;2023-08-24T11:58:42;5.63;;;3.45;;
58354;SDS011;44160;49.080;19.302;2023-08-24T12:01:09;5.72;;;3.17;;
58354;SDS011;44160;49.080;19.302;2023-08-24T12:03:36;5.82;;;3.33;;
58354;SDS011;44160;49.080;19.302;2023-08-24T12:06:02;5.32;;;3.60;;
58354;SDS011;44160;49.080;19.302;2023-08-24T12:08:54;6.63;;;3.30;;
58354;SDS011;44160;49.080;19.302;2023-08-24T12:11:21;4.25;;;3.22;;
58354;SDS011;44160;49.080;19.302;2023-08-24T12:13:50;5.25;;;3.65;;
58354;SDS011;44160;49.080;19.302;2023-08-24T12:16:17;5.70;;;3.63;;
58354;SDS011;44160;49.080;19.302;2023-08-24T12:18:47;4.47;;;3.38;;
58354;SDS011;44160;49.080;19.302;2023-08-24T12:21:13;4.55;;;3.15;;
58354;SDS011;44160;49.080;19.302;2023-08-24T12:23:40;5.80;;;3.55;;
58354;SDS011;44160;49.080;19.302;2023-08-24T12:26:06;5.38;;;3.67;;
58354;SDS011;44160;49.080;19.302;2023-08-24T12:28:32;5.43;;;3.38;;
58354;SDS011;44160;49.080;19.302;2023-08-24T12:30:59;7.00;;;3.80;;
58354;SDS011;44160;49.080;19.302;2023-08-24T12:33:28;7.85;;;5.47;;
58354;SDS011;44160;49.080;19.302;2023-08-24T12:35:55;14.82;;;10.23;;
58354;SDS011;44160;49.080;19.302;2023-08-24T12:38:21;10.85;;;7.57;;
58354;SDS011;44160;49.080;19.302;2023-08-24T12:40:48;5.03;;;3.25;;
58354;SDS011;44160;49.080;19.302;2023-08-24T12:43:14;5.32;;;3.45;;
58354;SDS011;44160;49.080;19.302;2023-08-24T12:45:40;4.65;;;3.10;;
58354;SDS011;44160;49.080;19.302;2023-08-24T12:48:07;5.25;;;3.20;;
58354;SDS011;44160;49.080;19.302;2023-08-24T12:50:33;6.68;;;3.53;;
58354;SDS011;44160;49.080;19.302;2023-08-24T12:52:59;3.80;;;2.92;;
58354;SDS011;44160;49.080;19.302;2023-08-24T12:55:26;5.15;;;3.45;;
58354;SDS011;44160;49.080;19.302;2023-08-24T12:57:52;7.30;;;3.38;;
58354;SDS011;44160;49.080;19.302;2023-08-24T13:00:18;7.50;;;4.22;;
58354;SDS011;44160;49.080;19.302;2023-08-24T13:02:45;6.63;;;3.45;;
58354;SDS011;44160;49.080;19.302;2023-08-24T13:05:11;4.40;;;3.30;;
58354;SDS011;44160;49.080;19.302;2023-08-24T13:07:37;4.35;;;3.20;;
58354;SDS011;44160;49.080;19.302;2023-08-24T13:10:04;4.22;;;3.00;;
58354;SDS011;44160;49.080;19.302;2023-08-24T13:12:31;5.00;;;3.00;;
58354;SDS011;44160;49.080;19.302;2023-08-24T13:14:57;3.60;;;2.85;;
58354;SDS011;44160;49.080;19.302;2023-08-24T13:17:23;3.83;;;2.90;;
58354;SDS011;44160;49.080;19.302;2023-08-24T13:19:49;5.85;;;3.50;;
58354;SDS011;44160;49.080;19.302;2023-08-24T13:22:15;5.57;;;3.47;;
58354;SDS011;44160;49.080;19.302;2023-08-24T13:24:41;3.55;;;2.88;;
58354;SDS011;44160;49.080;19.302;2023-08-24T13:27:09;4.93;;;3.00;;
58354;SDS011;44160;49.080;19.302;2023-08-24T13:29:39;6.28;;;3.13;;
58354;SDS011;44160;49.080;19.302;2023-08-24T13:32:05;4.78;;;3.38;;
58354;SDS011;44160;49.080;19.302;2023-08-24T13:34:33;5.15;;;3.38;;
58354;SDS011;44160;49.080;19.302;2023-08-24T13:36:59;4.10;;;3.15;;
58354;SDS011;44160;49.080;19.302;2023-08-24T13:39:26;4.90;;;3.08;;
58354;SDS011;44160;49.080;19.302;2023-08-24T13:41:58;3.60;;;2.85;;
58354;SDS011;44160;49.080;19.302;2023-08-24T13:44:24;4.18;;;2.92;;
58354;SDS011;44160;49.080;19.302;2023-08-24T13:46:51;4.80;;;3.13;;
58354;SDS011;44160;49.080;19.302;2023-08-24T13:49:18;4.00;;;2.75;;
58354;SDS011;44160;49.080;19.302;2023-08-24T13:51:44;8.32;;;4.15;;
58354;SDS011;44160;49.080;19.302;2023-08-24T13:54:14;5.07;;;3.45;;
58354;SDS011;44160;49.080;19.302;2023-08-24T13:56:40;8.68;;;4.88;;
58354;SDS011;44160;49.080;19.302;2023-08-24T13:59:06;5.15;;;3.83;;
58354;SDS011;44160;49.080;19.302;2023-08-24T14:01:32;5.32;;;3.85;;
58354;SDS011;44160;49.080;19.302;2023-08-24T14:03:58;12.55;;;7.68;;
58354;SDS011;44160;49.080;19.302;2023-08-24T14:06:24;6.05;;;3.97;;
58354;SDS011;44160;49.080;19.302;2023-08-24T14:08:53;4.60;;;3.58;;
58354;SDS011;44160;49.080;19.302;2023-08-24T14:11:19;5.78;;;4.30;;
58354;SDS011;44160;49.080;19.302;2023-08-24T14:13:45;3.85;;;3.15;;
58354;SDS011;44160;49.080;19.302;2023-08-24T14:16:11;4.72;;;2.95;;
58354;SDS011;44160;49.080;19.302;2023-08-24T14:18:37;10.02;;;3.40;;
58354;SDS011;44160;49.080;19.302;2023-08-24T14:21:03;3.25;;;2.58;;
58354;SDS011;44160;49.080;19.302;2023-08-24T14:23:29;4.15;;;3.22;;
58354;SDS011;44160;49.080;19.302;2023-08-24T14:25:55;5.07;;;3.03;;
58354;SDS011;44160;49.080;19.302;2023-08-24T14:28:21;7.40;;;3.25;;
58354;SDS011;44160;49.080;19.302;2023-08-24T14:30:49;3.90;;;2.55;;
58354;SDS011;44160;49.080;19.302;2023-08-24T14:33:15;4.63;;;3.28;;
58354;SDS011;44160;49.080;19.302;2023-08-24T14:35:41;4.97;;;3.10;;
58354;SDS011;44160;49.080;19.302;2023-08-24T14:38:07;3.88;;;2.83;;